sensor_id;sensor_type;location;lat;lon;timestamp;temperature;humidity
20422;DHT22;10370;53.102;18.034;2022-08-05T00:05:04;21.30;99.90
20422;DHT22;10370;53.102;18.034;2022-08-05T00:10:25;21.20;99.90
20422;DHT22;10370;53.102;18.034;2022-08-05T00:15:46;21.10;99.90
20422;DHT22;10370;53.102;18.034;2022-08-05T00:21:16;21.10;99.90
20422;DHT22;10370;53.102;18.034;2022-08-05T00:26:38;21.10;99.90
20422;DHT22;10370;53.102;18.034;2022-08-05T00:32:02;21.00;99.90
20422;DHT22;10370;53.102;18.034;2022-08-05T00:37:30;21.00;99.90
20422;DHT22;10370;53.102;18.034;2022-08-05T00:42:57;20.90;99.90
20422;DHT22;10370;53.102;18.034;2022-08-05T00:48:22;20.90;99.90
20422;DHT22;10370;53.102;18.034;2022-08-05T00:53:47;20.80;99.90
20422;DHT22;10370;53.102;18.034;2022-08-05T00:59:20;20.70;99.90
20422;DHT22;10370;53.102;18.034;2022-08-05T01:04:41;20.50;99.90
20422;DHT22;10370;53.102;18.034;2022-08-05T01:10:03;20.40;99.90
20422;DHT22;10370;53.102;18.034;2022-08-05T01:15:31;20.30;99.90
20422;DHT22;10370;53.102;18.034;2022-08-05T01:26:59;20.10;99.90
20422;DHT22;10370;53.102;18.034;2022-08-05T01:32:35;20.10;99.90
20422;DHT22;10370;53.102;18.034;2022-08-05T01:43:19;20.10;99.90
20422;DHT22;10370;53.102;18.034;2022-08-05T01:48:42;20.00;99.90
20422;DHT22;10370;53.102;18.034;2022-08-05T01:54:06;20.00;99.90
20422;DHT22;10370;53.102;18.034;2022-08-05T01:59:30;19.90;99.90
20422;DHT22;10370;53.102;18.034;2022-08-05T02:04:57;19.80;99.90
20422;DHT22;10370;53.102;18.034;2022-08-05T02:10:18;19.80;99.90
20422;DHT22;10370;53.102;18.034;2022-08-05T02:15:57;19.80;99.90
20422;DHT22;10370;53.102;18.034;2022-08-05T02:21:25;19.70;99.90
20422;DHT22;10370;53.102;18.034;2022-08-05T02:26:54;19.70;99.90
20422;DHT22;10370;53.102;18.034;2022-08-05T02:32:18;19.70;99.90
20422;DHT22;10370;53.102;18.034;2022-08-05T02:37:45;19.60;99.90
20422;DHT22;10370;53.102;18.034;2022-08-05T02:43:10;19.50;99.90
20422;DHT22;10370;53.102;18.034;2022-08-05T02:48:33;19.50;99.90
20422;DHT22;10370;53.102;18.034;2022-08-05T02:53:56;19.40;99.90
20422;DHT22;10370;53.102;18.034;2022-08-05T02:59:23;19.40;99.90
20422;DHT22;10370;53.102;18.034;2022-08-05T03:04:47;19.30;99.90
20422;DHT22;10370;53.102;18.034;2022-08-05T03:10:15;19.30;99.90
20422;DHT22;10370;53.102;18.034;2022-08-05T03:15:46;19.20;99.90
20422;DHT22;10370;53.102;18.034;2022-08-05T03:21:07;19.10;99.90
20422;DHT22;10370;53.102;18.034;2022-08-05T03:26:28;19.10;99.90
20422;DHT22;10370;53.102;18.034;2022-08-05T03:31:53;19.10;99.90
20422;DHT22;10370;53.102;18.034;2022-08-05T03:37:17;19.10;99.90
20422;DHT22;10370;53.102;18.034;2022-08-05T03:42:41;19.10;99.90
20422;DHT22;10370;53.102;18.034;2022-08-05T03:48:11;19.10;99.90
20422;DHT22;10370;53.102;18.034;2022-08-05T03:53:38;19.20;99.90
20422;DHT22;10370;53.102;18.034;2022-08-05T03:59:24;19.20;99.90
20422;DHT22;10370;53.102;18.034;2022-08-05T04:04:50;19.30;99.90
20422;DHT22;10370;53.102;18.034;2022-08-05T04:10:11;19.30;99.90
20422;DHT22;10370;53.102;18.034;2022-08-05T04:15:36;19.50;99.90
20422;DHT22;10370;53.102;18.034;2022-08-05T04:20:57;19.60;99.90
20422;DHT22;10370;53.102;18.034;2022-08-05T04:26:19;19.70;99.90
20422;DHT22;10370;53.102;18.034;2022-08-05T04:31:40;20.00;99.90
20422;DHT22;10370;53.102;18.034;2022-08-05T04:37:02;20.20;99.90
20422;DHT22;10370;53.102;18.034;2022-08-05T04:42:23;20.50;99.90
20422;DHT22;10370;53.102;18.034;2022-08-05T04:47:44;21.00;99.90
20422;DHT22;10370;53.102;18.034;2022-08-05T11:39:15;31.00;79.70
20422;DHT22;10370;53.102;18.034;2022-08-05T11:44:37;31.10;79.00
20422;DHT22;10370;53.102;18.034;2022-08-05T11:50:00;31.10;78.70
20422;DHT22;10370;53.102;18.034;2022-08-05T11:55:22;31.30;77.40
20422;DHT22;10370;53.102;18.034;2022-08-05T12:00:43;31.40;78.30
20422;DHT22;10370;53.102;18.034;2022-08-05T12:06:06;31.30;77.60
20422;DHT22;10370;53.102;18.034;2022-08-05T12:11:30;31.30;77.70
20422;DHT22;10370;53.102;18.034;2022-08-05T12:17:06;31.30;78.30
20422;DHT22;10370;53.102;18.034;2022-08-05T12:22:32;31.50;78.10
20422;DHT22;10370;53.102;18.034;2022-08-05T12:27:53;31.50;77.00
20422;DHT22;10370;53.102;18.034;2022-08-05T12:33:14;31.80;77.30
20422;DHT22;10370;53.102;18.034;2022-08-05T12:38:47;32.00;77.70
20422;DHT22;10370;53.102;18.034;2022-08-05T12:44:12;31.80;75.90
20422;DHT22;10370;53.102;18.034;2022-08-05T12:49:45;31.70;75.90
20422;DHT22;10370;53.102;18.034;2022-08-05T12:55:26;31.60;75.50
20422;DHT22;10370;53.102;18.034;2022-08-05T13:00:47;31.90;77.70
20422;DHT22;10370;53.102;18.034;2022-08-05T13:06:30;31.90;76.30
20422;DHT22;10370;53.102;18.034;2022-08-05T13:12:02;32.00;75.80
20422;DHT22;10370;53.102;18.034;2022-08-05T13:17:28;32.10;75.20
20422;DHT22;10370;53.102;18.034;2022-08-05T13:22:51;32.00;76.10
20422;DHT22;10370;53.102;18.034;2022-08-05T13:28:13;32.00;76.10
20422;DHT22;10370;53.102;18.034;2022-08-05T13:33:34;32.10;75.60
20422;DHT22;10370;53.102;18.034;2022-08-05T13:39:14;31.90;76.00
20422;DHT22;10370;53.102;18.034;2022-08-05T13:44:44;32.00;76.70
20422;DHT22;10370;53.102;18.034;2022-08-05T13:50:06;31.90;75.70
20422;DHT22;10370;53.102;18.034;2022-08-05T13:55:29;31.90;76.30
20422;DHT22;10370;53.102;18.034;2022-08-05T14:01:00;31.80;77.20
20422;DHT22;10370;53.102;18.034;2022-08-05T14:06:21;31.90;76.50
20422;DHT22;10370;53.102;18.034;2022-08-05T14:11:45;31.90;76.50
20422;DHT22;10370;53.102;18.034;2022-08-05T14:17:19;31.90;77.70
20422;DHT22;10370;53.102;18.034;2022-08-05T14:22:43;31.90;76.60
20422;DHT22;10370;53.102;18.034;2022-08-05T14:28:09;32.00;75.60
20422;DHT22;10370;53.102;18.034;2022-08-05T14:33:35;32.00;76.70
20422;DHT22;10370;53.102;18.034;2022-08-05T14:39:16;32.10;76.00
20422;DHT22;10370;53.102;18.034;2022-08-05T14:44:41;32.10;76.60
20422;DHT22;10370;53.102;18.034;2022-08-05T14:50:02;32.10;75.40
20422;DHT22;10370;53.102;18.034;2022-08-05T14:55:32;32.20;74.60
20422;DHT22;10370;53.102;18.034;2022-08-05T15:00:59;32.20;74.20
20422;DHT22;10370;53.102;18.034;2022-08-05T15:06:20;32.20;74.20
20422;DHT22;10370;53.102;18.034;2022-08-05T15:11:40;32.30;76.50
20422;DHT22;10370;53.102;18.034;2022-08-05T15:17:11;32.30;76.10
20422;DHT22;10370;53.102;18.034;2022-08-05T15:22:33;32.30;75.50
20422;DHT22;10370;53.102;18.034;2022-08-05T15:27:54;32.30;76.10
20422;DHT22;10370;53.102;18.034;2022-08-05T15:33:16;32.20;75.00
20422;DHT22;10370;53.102;18.034;2022-08-05T15:38:41;31.80;74.80
20422;DHT22;10370;53.102;18.034;2022-08-05T15:44:02;31.60;75.80
20422;DHT22;10370;53.102;18.034;2022-08-05T15:49:23;31.40;77.20
20422;DHT22;10370;53.102;18.034;2022-08-05T15:55:04;31.40;77.70
20422;DHT22;10370;53.102;18.034;2022-08-05T16:00:26;31.60;77.60
20422;DHT22;10370;53.102;18.034;2022-08-05T16:05:52;31.60;77.00
20422;DHT22;10370;53.102;18.034;2022-08-05T16:11:15;31.70;76.30
20422;DHT22;10370;53.102;18.034;2022-08-05T16:16:36;31.70;76.30
20422;DHT22;10370;53.102;18.034;2022-08-05T16:21:57;31.70;77.60
20422;DHT22;10370;53.102;18.034;2022-08-05T16:27:20;31.70;75.60
20422;DHT22;10370;53.102;18.034;2022-08-05T16:32:51;31.60;75.80
20422;DHT22;10370;53.102;18.034;2022-08-05T16:38:12;31.40;76.90
20422;DHT22;10370;53.102;18.034;2022-08-05T16:43:36;31.40;76.60
20422;DHT22;10370;53.102;18.034;2022-08-05T16:48:57;31.30;77.50
20422;DHT22;10370;53.102;18.034;2022-08-05T16:54:18;31.20;78.10
20422;DHT22;10370;53.102;18.034;2022-08-05T16:59:46;31.10;78.70
20422;DHT22;10370;53.102;18.034;2022-08-05T17:05:20;30.90;79.30
20422;DHT22;10370;53.102;18.034;2022-08-05T17:10:41;30.70;79.40
20422;DHT22;10370;53.102;18.034;2022-08-05T17:16:03;30.50;80.20
20422;DHT22;10370;53.102;18.034;2022-08-05T17:21:45;30.40;80.60
20422;DHT22;10370;53.102;18.034;2022-08-05T17:27:10;30.20;81.60
20422;DHT22;10370;53.102;18.034;2022-08-05T17:32:31;30.00;82.50
20422;DHT22;10370;53.102;18.034;2022-08-05T17:37:53;29.80;83.10
20422;DHT22;10370;53.102;18.034;2022-08-05T17:43:19;29.70;83.60
20422;DHT22;10370;53.102;18.034;2022-08-05T17:48:46;29.60;84.20
20422;DHT22;10370;53.102;18.034;2022-08-05T17:54:07;29.40;84.40
20422;DHT22;10370;53.102;18.034;2022-08-05T17:59:28;29.30;86.20
20422;DHT22;10370;53.102;18.034;2022-08-05T18:04:49;28.90;89.70
20422;DHT22;10370;53.102;18.034;2022-08-05T18:10:13;28.80;90.40
20422;DHT22;10370;53.102;18.034;2022-08-05T18:15:40;28.10;92.00
20422;DHT22;10370;53.102;18.034;2022-08-05T18:21:01;27.60;93.80
20422;DHT22;10370;53.102;18.034;2022-08-05T18:26:22;27.30;94.80
20422;DHT22;10370;53.102;18.034;2022-08-05T18:31:46;27.10;95.70
20422;DHT22;10370;53.102;18.034;2022-08-05T18:37:09;26.90;96.30
20422;DHT22;10370;53.102;18.034;2022-08-05T18:42:31;26.90;97.10
20422;DHT22;10370;53.102;18.034;2022-08-05T18:47:52;26.80;97.80
20422;DHT22;10370;53.102;18.034;2022-08-05T18:53:15;26.70;98.80
20422;DHT22;10370;53.102;18.034;2022-08-05T18:58:39;26.00;99.90
20422;DHT22;10370;53.102;18.034;2022-08-05T19:04:02;25.40;99.90
20422;DHT22;10370;53.102;18.034;2022-08-05T19:09:24;24.90;99.90
20422;DHT22;10370;53.102;18.034;2022-08-05T19:14:45;24.50;99.90
20422;DHT22;10370;53.102;18.034;2022-08-05T19:20:20;24.30;99.90
20422;DHT22;10370;53.102;18.034;2022-08-05T19:25:41;24.10;99.90
20422;DHT22;10370;53.102;18.034;2022-08-05T19:31:03;24.00;99.90
20422;DHT22;10370;53.102;18.034;2022-08-05T19:36:25;23.80;99.90
20422;DHT22;10370;53.102;18.034;2022-08-05T19:41:48;23.70;99.90
20422;DHT22;10370;53.102;18.034;2022-08-05T19:47:18;23.30;99.90
20422;DHT22;10370;53.102;18.034;2022-08-05T19:52:40;23.10;99.90
20422;DHT22;10370;53.102;18.034;2022-08-05T19:58:02;23.00;99.90
20422;DHT22;10370;53.102;18.034;2022-08-05T20:03:33;23.00;99.90
20422;DHT22;10370;53.102;18.034;2022-08-05T20:08:57;23.00;99.90
20422;DHT22;10370;53.102;18.034;2022-08-05T20:14:22;23.10;99.90
20422;DHT22;10370;53.102;18.034;2022-08-05T20:19:46;23.10;99.90
20422;DHT22;10370;53.102;18.034;2022-08-05T20:25:07;23.10;99.90
20422;DHT22;10370;53.102;18.034;2022-08-05T20:30:28;23.00;99.90
20422;DHT22;10370;53.102;18.034;2022-08-05T20:35:49;22.90;99.90
20422;DHT22;10370;53.102;18.034;2022-08-05T20:41:11;22.70;99.90
20422;DHT22;10370;53.102;18.034;2022-08-05T20:46:34;22.60;99.90
20422;DHT22;10370;53.102;18.034;2022-08-05T20:51:56;22.60;99.90
20422;DHT22;10370;53.102;18.034;2022-08-05T20:57:17;22.60;99.90
20422;DHT22;10370;53.102;18.034;2022-08-05T21:02:44;22.40;99.90
20422;DHT22;10370;53.102;18.034;2022-08-05T21:08:10;22.30;99.90
20422;DHT22;10370;53.102;18.034;2022-08-05T21:13:31;22.20;99.90
20422;DHT22;10370;53.102;18.034;2022-08-05T21:19:08;22.10;99.90
20422;DHT22;10370;53.102;18.034;2022-08-05T21:24:29;22.20;99.90
20422;DHT22;10370;53.102;18.034;2022-08-05T21:29:52;22.20;99.90
20422;DHT22;10370;53.102;18.034;2022-08-05T21:35:15;22.10;99.90
20422;DHT22;10370;53.102;18.034;2022-08-05T21:40:37;22.00;99.90
20422;DHT22;10370;53.102;18.034;2022-08-05T21:45:58;22.10;99.90
20422;DHT22;10370;53.102;18.034;2022-08-05T21:51:19;22.10;99.90
20422;DHT22;10370;53.102;18.034;2022-08-05T21:56:44;22.10;99.90
20422;DHT22;10370;53.102;18.034;2022-08-05T22:02:11;22.10;99.90
20422;DHT22;10370;53.102;18.034;2022-08-05T22:07:32;21.90;99.90
20422;DHT22;10370;53.102;18.034;2022-08-05T22:12:59;21.80;99.90
20422;DHT22;10370;53.102;18.034;2022-08-05T22:18:28;21.80;99.90
20422;DHT22;10370;53.102;18.034;2022-08-05T22:23:49;21.70;99.90
20422;DHT22;10370;53.102;18.034;2022-08-05T22:29:32;21.60;99.90
20422;DHT22;10370;53.102;18.034;2022-08-05T22:34:53;21.40;99.90
20422;DHT22;10370;53.102;18.034;2022-08-05T22:40:14;21.30;99.90
20422;DHT22;10370;53.102;18.034;2022-08-05T22:45:36;21.20;99.90
20422;DHT22;10370;53.102;18.034;2022-08-05T22:50:57;21.00;99.90
20422;DHT22;10370;53.102;18.034;2022-08-05T22:56:18;21.00;99.90
20422;DHT22;10370;53.102;18.034;2022-08-05T23:01:49;20.90;99.90
20422;DHT22;10370;53.102;18.034;2022-08-05T23:07:25;20.90;99.90
20422;DHT22;10370;53.102;18.034;2022-08-05T23:12:48;20.80;99.90
20422;DHT22;10370;53.102;18.034;2022-08-05T23:18:10;20.70;99.90
20422;DHT22;10370;53.102;18.034;2022-08-05T23:23:35;20.70;99.90
20422;DHT22;10370;53.102;18.034;2022-08-05T23:28:56;20.60;99.90
20422;DHT22;10370;53.102;18.034;2022-08-05T23:34:17;20.70;99.90
20422;DHT22;10370;53.102;18.034;2022-08-05T23:39:44;20.50;99.90
20422;DHT22;10370;53.102;18.034;2022-08-05T23:45:13;20.50;99.90
20422;DHT22;10370;53.102;18.034;2022-08-05T23:50:35;20.40;99.90
20422;DHT22;10370;53.102;18.034;2022-08-05T23:55:56;20.40;99.90
